Time;durP1;ratioP1;P1;durP2;ratioP2;P2;SDS_P1;SDS_P2;PMS_P1;PMS_P2;Temp;Humidity;BMP_temperature;BMP_pressure;BME280_temperature;BME280_humidity;BME280_pressure;Samples;Min_cycle;Max_cycle;Signal;HPM_P1;HPM_P2
2022/05/31 00:00:12;;;;;;;5.97;5.37;;;;;;;27.04;44.84;94532.25;5080943;28;20463;-80
2022/05/31 00:02:39;;;;;;;7.53;6.30;;;;;;;27.08;44.73;94527.88;5084849;28;20495;-80
2022/05/31 00:05:05;;;;;;;7.10;5.43;;;;;;;27.22;44.01;94527.84;5079008;28;20437;-80
2022/05/31 00:07:30;;;;;;;6.37;5.70;;;;;;;27.26;43.75;94523.47;5084617;28;20428;-81
2022/05/31 00:09:56;;;;;;;10.17;5.50;;;;;;;26.96;44.37;94530.25;5084024;28;20412;-81
2022/05/31 00:12:21;;;;;;;6.60;4.87;;;;;;;26.76;45.09;94520.75;5084781;28;20169;-79
2022/05/31 00:14:47;;;;;;;5.23;4.73;;;;;;;26.80;44.98;94527.09;5083386;28;20594;-80
2022/05/31 00:17:13;;;;;;;7.93;5.20;;;;;;;26.99;44.89;94525.09;5083076;28;20178;-80
2022/05/31 00:19:38;;;;;;;7.10;5.37;;;;;;;27.00;44.45;94526.69;5083912;28;20430;-81
2022/05/31 00:22:09;;;;;;;6.37;5.73;;;;;;;27.19;44.11;94528.47;5085410;28;20191;-79
2022/05/31 00:24:38;;;;;;;9.03;5.70;;;;;;;26.92;44.58;94518.53;5083585;28;20241;-80
2022/05/31 00:27:04;;;;;;;6.53;5.67;;;;;;;27.25;43.37;94521.91;5084023;28;20470;-79
2022/05/31 00:29:31;;;;;;;8.43;5.43;;;;;;;26.73;45.25;94521.34;5084473;28;20418;-81
2022/05/31 00:31:59;;;;;;;8.93;5.70;;;;;;;26.73;44.47;94526.72;5080638;28;20217;-81
2022/05/31 00:34:25;;;;;;;5.63;5.17;;;;;;;26.84;44.62;94528.91;5083461;28;20490;-81
2022/05/31 00:36:51;;;;;;;7.53;5.60;;;;;;;26.49;45.11;94525.00;5080359;28;20436;-81
2022/05/31 00:39:17;;;;;;;5.70;5.30;;;;;;;26.73;44.81;94529.41;5067585;28;20178;-81
2022/05/31 00:41:55;;;;;;;8.83;6.43;;;;;;;27.10;44.38;94530.25;5085782;28;20469;-81
2022/05/31 00:44:26;;;;;;;6.47;5.90;;;;;;;26.96;44.59;94524.91;5081122;28;20450;-81
2022/05/31 00:47:24;;;;;;;6.10;5.50;;;;;;;26.87;45.04;94522.13;5088722;28;20483;-81
2022/05/31 00:49:57;;;;;;;6.77;6.07;;;;;;;26.82;44.56;94517.66;5083935;28;20450;-82
2022/05/31 00:52:28;;;;;;;5.70;5.20;;;;;;;26.82;45.14;94530.28;5071801;28;20489;-81
2022/05/31 00:55:06;;;;;;;6.10;5.43;;;;;;;26.78;45.26;94529.31;5082473;28;20442;-81
2022/05/31 00:57:35;;;;;;;9.83;5.33;;;;;;;26.82;44.70;94527.59;5073898;28;20459;-81
2022/05/31 01:00:09;;;;;;;6.13;5.53;;;;;;;26.74;44.90;94531.78;5085771;28;20453;-81
2022/05/31 01:02:35;;;;;;;8.13;5.83;;;;;;;26.38;46.23;94531.66;5073521;28;20432;-81
2022/05/31 01:05:04;;;;;;;7.80;6.07;;;;;;;26.42;46.31;94528.06;5083737;28;20493;-82
2022/05/31 01:07:30;;;;;;;5.93;5.43;;;;;;;26.22;46.22;94529.25;5079313;28;20439;-81
2022/05/31 01:09:56;;;;;;;6.33;5.73;;;;;;;25.89;47.25;94531.91;5080729;28;20421;-82
2022/05/31 01:12:23;;;;;;;7.20;5.60;;;;;;;26.37;46.03;94536.22;5075174;28;20438;-81
2022/05/31 01:14:49;;;;;;;10.50;6.77;;;;;;;26.42;45.53;94538.00;5078792;28;20182;-82
2022/05/31 01:17:18;;;;;;;6.47;5.20;;;;;;;26.42;45.74;94533.44;5084992;28;20981;-81
2022/05/31 01:19:56;;;;;;;6.37;5.57;;;;;;;26.61;45.45;94546.78;5078793;28;20173;-80
2022/05/31 01:22:44;;;;;;;7.30;5.50;;;;;;;26.50;45.31;94540.00;5085012;28;20445;-82
2022/05/31 01:25:22;;;;;;;7.50;5.93;;;;;;;26.74;45.16;94539.84;5082509;28;20412;-81
2022/05/31 01:28:13;;;;;;;6.83;6.10;;;;;;;26.41;45.90;94539.91;5084419;28;20538;-81
2022/05/31 01:30:58;;;;;;;7.63;5.03;;;;;;;26.68;45.63;94547.19;5083360;28;20522;-81
2022/05/31 01:33:36;;;;;;;5.40;5.00;;;;;;;26.81;45.12;94539.47;5083698;28;20465;-80
2022/05/31 01:36:11;;;;;;;6.70;5.20;;;;;;;26.92;44.93;94543.53;5087451;28;20423;-81
2022/05/31 01:38:49;;;;;;;7.23;5.23;;;;;;;26.99;44.39;94541.22;5088826;28;20423;-80
2022/05/31 01:41:33;;;;;;;8.37;5.60;;;;;;;26.73;44.83;94537.44;5081500;28;20436;-80
2022/05/31 01:44:02;;;;;;;13.63;6.10;;;;;;;26.71;44.92;94529.69;5086830;28;20444;-82
2022/05/31 01:46:32;;;;;;;6.07;5.47;;;;;;;26.67;45.44;94539.44;5088055;28;20434;-81
2022/05/31 01:49:01;;;;;;;6.10;5.50;;;;;;;27.26;43.88;94529.66;5088137;28;20420;-81
2022/05/31 01:51:26;;;;;;;7.77;5.97;;;;;;;26.76;44.93;94526.13;5079068;28;20443;-81
2022/05/31 01:53:55;;;;;;;7.33;5.07;;;;;;;26.41;46.07;94531.06;5085747;28;20465;-80
2022/05/31 01:56:22;;;;;;;7.20;5.00;;;;;;;25.96;46.92;94530.78;5088272;28;20206;-81
2022/05/31 01:58:49;;;;;;;6.13;5.60;;;;;;;26.59;45.58;94530.19;5087429;28;20416;-81
2022/05/31 02:01:15;;;;;;;5.93;5.43;;;;;;;26.43;46.06;94529.69;5082645;28;20456;-81
2022/05/31 02:03:43;;;;;;;6.27;5.63;;;;;;;26.34;45.97;94533.34;5086851;28;20435;-81
2022/05/31 02:06:28;;;;;;;7.30;5.83;;;;;;;26.63;45.77;94525.03;5084165;28;20241;-82
2022/05/31 02:08:53;;;;;;;8.60;5.83;;;;;;;26.75;45.44;94527.19;5076747;28;20509;-82
2022/05/31 02:11:19;;;;;;;13.53;5.40;;;;;;;26.82;45.16;94531.06;5086260;28;20440;-81
2022/05/31 02:13:45;;;;;;;9.20;6.47;;;;;;;27.00;44.41;94532.06;5088221;28;20190;-81
2022/05/31 02:16:12;;;;;;;7.13;5.10;;;;;;;27.00;44.86;94532.06;5081409;28;20182;-82
2022/05/31 02:21:22;;;;;;;5.70;5.13;;;;;;;26.83;43.94;94542.63;5084248;28;20793;-81
2022/05/31 02:23:47;;;;;;;27.20;6.27;;;;;;;26.86;43.72;94542.84;5088660;28;20417;-81
2022/05/31 02:26:13;;;;;;;6.33;5.30;;;;;;;26.99;43.32;94545.78;5086583;28;20188;-81
2022/05/31 02:28:38;;;;;;;6.03;5.23;;;;;;;26.84;44.19;94544.22;5086610;28;20182;-81
2022/05/31 02:31:04;;;;;;;12.90;6.30;;;;;;;26.98;44.28;94547.69;5086339;28;20189;-81
2022/05/31 02:33:29;;;;;;;8.30;5.50;;;;;;;27.29;43.53;94548.97;5080538;28;20218;-81
2022/05/31 02:35:54;;;;;;;11.00;5.97;;;;;;;27.14;43.91;94547.38;5084489;28;20205;-80
2022/05/31 02:38:20;;;;;;;7.03;5.60;;;;;;;26.93;44.73;94539.72;5078725;28;20763;-81
2022/05/31 02:40:45;;;;;;;11.20;6.30;;;;;;;26.98;44.46;94545.00;5095991;28;20166;-82
2022/05/31 02:43:11;;;;;;;10.93;6.87;;;;;;;27.24;44.11;94547.94;5087549;28;20174;-81
2022/05/31 02:45:36;;;;;;;7.73;6.30;;;;;;;27.15;44.04;94549.75;5078094;28;20180;-81
2022/05/31 02:48:02;;;;;;;10.97;5.70;;;;;;;27.50;43.15;94546.63;5087926;28;20197;-81
2022/05/31 02:50:28;;;;;;;5.80;4.97;;;;;;;26.88;44.19;94555.94;5087978;28;20178;-81
2022/05/31 02:52:53;;;;;;;7.67;6.33;;;;;;;26.55;45.45;94557.91;5085838;28;20190;-82
2022/05/31 02:55:18;;;;;;;8.30;5.53;;;;;;;26.81;44.90;94558.25;5087679;28;20276;-81
2022/05/31 02:57:44;;;;;;;7.77;6.33;;;;;;;26.87;44.38;94557.84;5087791;28;20197;-81
2022/05/31 03:00:10;;;;;;;6.40;5.57;;;;;;;26.77;44.70;94576.84;5087782;28;20215;-81
2022/05/31 03:02:37;;;;;;;15.83;6.60;;;;;;;26.65;45.08;94574.66;5087146;28;20176;-81
2022/05/31 03:05:03;;;;;;;7.00;5.40;;;;;;;26.55;45.51;94574.03;5077826;28;20426;-82
2022/05/31 03:07:28;;;;;;;10.30;6.60;;;;;;;26.41;45.86;94568.66;5091003;28;20503;-81
2022/05/31 03:09:54;;;;;;;12.40;6.83;;;;;;;26.22;46.28;94572.19;5086839;28;20467;-81
2022/05/31 03:12:20;;;;;;;7.23;6.50;;;;;;;26.21;46.20;94575.94;5086732;28;20575;-82
2022/05/31 03:14:59;;;;;;;7.53;5.73;;;;;;;26.45;45.83;94575.00;5070216;28;20175;-81
2022/05/31 03:17:32;;;;;;;6.83;5.63;;;;;;;26.08;46.52;94574.81;5073538;28;20847;-81
2022/05/31 03:20:10;;;;;;;7.87;6.20;;;;;;;26.45;45.48;94580.38;5088813;28;20942;-81
2022/05/31 03:22:47;;;;;;;7.60;6.03;;;;;;;26.01;46.36;94587.00;5087782;28;20424;-81
2022/05/31 03:25:25;;;;;;;8.33;5.93;;;;;;;25.95;46.13;94580.94;5084740;28;20837;-81
2022/05/31 03:27:54;;;;;;;12.80;6.10;;;;;;;26.25;45.51;94582.31;5086260;28;20529;-80
2022/05/31 03:30:19;;;;;;;10.13;5.90;;;;;;;25.99;46.45;94589.19;5086730;28;20420;-80
2022/05/31 03:32:45;;;;;;;10.63;6.40;;;;;;;24.98;48.75;94601.78;5078301;28;20499;-81
2022/05/31 03:35:11;;;;;;;8.13;7.33;;;;;;;25.27;48.32;94584.84;5085913;28;20224;-81
2022/05/31 03:37:38;;;;;;;7.93;7.13;;;;;;;25.64;47.31;94594.00;5086004;28;20446;-81
2022/05/31 03:40:05;;;;;;;10.07;7.07;;;;;;;25.80;47.22;94597.22;5086396;28;20416;-81
2022/05/31 03:42:30;;;;;;;7.43;6.67;;;;;;;25.86;46.87;94602.25;5086323;28;20424;-82
2022/05/31 03:44:56;;;;;;;8.93;7.47;;;;;;;25.70;47.22;94601.66;5092826;28;20435;-81
2022/05/31 03:47:21;;;;;;;10.90;7.53;;;;;;;26.15;46.58;94603.97;5088170;28;20178;-81
2022/05/31 03:49:47;;;;;;;12.33;8.83;;;;;;;26.37;45.75;94605.19;5092362;28;20241;-81
2022/05/31 03:52:13;;;;;;;15.83;8.00;;;;;;;26.72;45.70;94606.47;5087097;28;20316;-81
2022/05/31 03:54:38;;;;;;;12.27;7.80;;;;;;;26.21;46.18;94602.78;5086055;28;20253;-81
2022/05/31 03:57:05;;;;;;;10.80;9.80;;;;;;;26.48;45.41;94601.25;5083272;28;20464;-80
2022/05/31 03:59:37;;;;;;;7.23;6.50;;;;;;;26.73;45.54;94609.94;5084211;28;20169;-81
2022/05/31 04:02:04;;;;;;;8.10;7.30;;;;;;;26.71;45.01;94604.09;5081959;28;20428;-81
2022/05/31 04:04:29;;;;;;;9.17;7.43;;;;;;;26.71;45.15;94604.88;5086111;28;20427;-82
2022/05/31 04:06:54;;;;;;;10.37;7.27;;;;;;;26.11;46.24;94602.94;5085137;28;20424;-81
2022/05/31 04:09:20;;;;;;;10.03;6.93;;;;;;;26.21;46.08;94607.34;5088311;28;20244;-81
2022/05/31 04:11:45;;;;;;;10.90;6.57;;;;;;;26.04;46.44;94602.53;5089996;28;20200;-83
2022/05/31 04:14:11;;;;;;;13.20;7.30;;;;;;;26.36;46.23;94603.63;5092083;28;20198;-81
2022/05/31 04:16:36;;;;;;;8.10;7.10;;;;;;;26.58;45.88;94602.94;5092346;28;20702;-81
2022/05/31 04:19:03;;;;;;;7.10;6.47;;;;;;;26.74;45.73;94608.88;5087125;28;20185;-81
2022/05/31 04:21:28;;;;;;;11.03;7.40;;;;;;;26.91;45.08;94614.44;5085692;28;20174;-81
2022/05/31 04:24:02;;;;;;;7.87;7.17;;;;;;;27.03;44.62;94612.06;5086057;28;20431;-81
2022/05/31 04:26:36;;;;;;;8.83;7.03;;;;;;;27.04;44.58;94620.91;5084622;28;20170;-81
2022/05/31 04:29:02;;;;;;;10.20;7.00;;;;;;;26.98;45.09;94628.28;5081967;28;20488;-80
2022/05/31 04:31:27;;;;;;;9.43;7.33;;;;;;;26.71;45.39;94625.56;5081044;28;20995;-81
2022/05/31 04:33:53;;;;;;;8.07;6.20;;;;;;;27.00;44.65;94625.31;5105112;28;20475;-81
2022/05/31 04:36:20;;;;;;;9.47;7.50;;;;;;;27.25;44.54;94629.38;5088447;28;20205;-81
2022/05/31 04:38:46;;;;;;;8.13;7.07;;;;;;;27.31;44.59;94628.19;5085497;28;20193;-81
2022/05/31 04:41:21;;;;;;;10.00;7.23;;;;;;;27.02;44.17;94625.78;5084158;28;20432;-81
2022/05/31 04:43:47;;;;;;;10.07;6.70;;;;;;;27.64;43.88;94626.13;5083611;28;20165;-81
2022/05/31 04:46:15;;;;;;;7.87;6.73;;;;;;;27.92;42.97;94636.03;5095333;28;20914;-81
2022/05/31 04:48:41;;;;;;;10.37;6.50;;;;;;;27.37;43.52;94632.34;5074462;28;20414;-82
2022/05/31 04:51:06;;;;;;;11.47;6.33;;;;;;;26.87;44.83;94640.31;5088460;28;20436;-81
2022/05/31 04:53:32;;;;;;;6.63;6.07;;;;;;;27.24;43.86;94639.31;5081726;28;20232;-82
2022/05/31 04:56:03;;;;;;;7.87;5.60;;;;;;;27.16;43.61;94641.91;5085460;28;20177;-82
2022/05/31 04:58:28;;;;;;;5.40;4.90;;;;;;;27.04;43.81;94637.03;5074026;28;20181;-81
2022/05/31 05:00:54;;;;;;;10.80;6.40;;;;;;;26.77;44.20;94643.16;5084633;28;20413;-81
2022/05/31 05:03:21;;;;;;;6.23;5.40;;;;;;;26.87;44.07;94643.00;5085691;28;20680;-81
2022/05/31 05:05:47;;;;;;;7.83;5.80;;;;;;;26.92;44.17;94637.53;5084989;28;20176;-81
2022/05/31 05:08:12;;;;;;;6.77;5.50;;;;;;;26.43;44.77;94646.97;5091885;28;20454;-81
2022/05/31 05:10:44;;;;;;;6.23;5.40;;;;;;;25.91;46.17;94636.22;5092699;28;20182;-81
2022/05/31 05:13:09;;;;;;;8.97;5.37;;;;;;;26.70;44.42;94643.56;5095827;28;20220;-81
2022/05/31 05:15:39;;;;;;;7.00;5.20;;;;;;;26.16;45.26;94637.75;5087877;28;20416;-81
2022/05/31 05:18:04;;;;;;;8.50;5.87;;;;;;;25.63;46.84;94646.00;5089836;28;20189;-81
2022/05/31 05:20:33;;;;;;;6.60;5.13;;;;;;;26.16;46.03;94643.13;5093139;28;20422;-81
2022/05/31 05:22:58;;;;;;;8.80;5.27;;;;;;;26.51;44.87;94642.81;5090126;28;20170;-81
2022/05/31 05:25:24;;;;;;;10.80;5.60;;;;;;;25.91;46.35;94641.56;5087614;28;20435;-81
2022/05/31 05:27:49;;;;;;;7.20;5.40;;;;;;;25.73;46.54;94645.88;5086445;28;21018;-81
2022/05/31 05:32:59;;;;;;;8.50;5.50;;;;;;;26.05;46.41;94652.41;5085631;28;20278;-81
2022/05/31 05:35:24;;;;;;;5.90;5.40;;;;;;;26.87;44.42;94651.06;5105737;28;20436;-81
2022/05/31 05:37:49;;;;;;;6.47;5.33;;;;;;;27.85;42.60;94645.31;5088376;28;20199;-81
2022/05/31 05:40:15;;;;;;;9.33;5.73;;;;;;;27.85;42.44;94647.22;5084723;28;20240;-81
2022/05/31 05:42:41;;;;;;;5.90;5.30;;;;;;;27.58;42.68;94643.47;5088410;28;20181;-81
2022/05/31 05:45:08;;;;;;;6.50;5.33;;;;;;;27.58;42.76;94653.44;5088626;28;20202;-81
2022/05/31 05:47:33;;;;;;;6.83;5.60;;;;;;;27.23;43.71;94655.75;5095038;28;20839;-81
2022/05/31 05:49:58;;;;;;;9.43;6.30;;;;;;;28.24;42.02;94651.94;5085215;28;20493;-81
2022/05/31 05:52:24;;;;;;;8.13;6.67;;;;;;;27.48;43.50;94653.66;5086045;28;20178;-81
2022/05/31 05:54:49;;;;;;;7.53;5.97;;;;;;;27.88;42.17;94653.88;5084056;28;20189;-81
2022/05/31 05:57:15;;;;;;;7.03;5.30;;;;;;;27.93;42.13;94654.56;5085296;28;20177;-81
2022/05/31 05:59:40;;;;;;;7.13;5.23;;;;;;;28.68;40.61;94668.41;5083989;28;20177;-81
2022/05/31 06:02:23;;;;;;;8.73;5.17;;;;;;;27.80;41.94;94658.84;5086364;28;20177;-81
2022/05/31 06:05:03;;;;;;;6.27;5.50;;;;;;;26.79;44.36;94660.59;5085782;28;20197;-81
2022/05/31 06:07:34;;;;;;;6.90;6.30;;;;;;;27.83;42.66;94660.97;5103009;28;20448;-81
2022/05/31 06:10:10;;;;;;;11.63;6.27;;;;;;;27.95;42.91;94656.97;5087480;28;20404;-81
2022/05/31 06:12:41;;;;;;;22.70;7.53;;;;;;;27.89;42.39;94658.16;5086823;28;20449;-81
2022/05/31 06:15:21;;;;;;;7.30;6.70;;;;;;;28.27;41.77;94660.50;5087350;28;20451;-80
2022/05/31 06:17:52;;;;;;;6.73;6.23;;;;;;;28.07;42.50;94659.13;5086479;28;20459;-81
2022/05/31 06:20:18;;;;;;;8.10;5.80;;;;;;;27.94;42.88;94660.75;5086811;28;20487;-81
2022/05/31 06:22:44;;;;;;;6.80;5.77;;;;;;;27.24;44.23;94651.94;5099814;28;20432;-81
2022/05/31 06:25:14;;;;;;;7.50;5.43;;;;;;;28.85;40.75;94653.44;5087824;28;20569;-81
2022/05/31 06:27:39;;;;;;;6.83;4.67;;;;;;;28.87;40.59;94657.41;5087956;28;20556;-81
2022/05/31 06:30:05;;;;;;;6.43;5.80;;;;;;;29.51;39.59;94654.31;5090451;28;20459;-80
2022/05/31 06:32:32;;;;;;;6.93;6.10;;;;;;;29.10;40.18;94655.47;5086981;28;20247;-81
2022/05/31 06:34:58;;;;;;;9.87;5.87;;;;;;;30.05;37.92;94653.28;5086709;28;20474;-81
2022/05/31 06:37:24;;;;;;;9.40;6.57;;;;;;;29.72;38.89;94657.22;5088765;28;20451;-80
2022/05/31 06:39:49;;;;;;;7.93;6.90;;;;;;;29.81;38.96;94651.88;5086891;28;20197;-81
2022/05/31 06:42:18;;;;;;;8.70;7.70;;;;;;;28.68;42.21;94656.84;5085105;28;20265;-80
2022/05/31 06:44:48;;;;;;;12.60;7.77;;;;;;;30.21;38.59;94648.22;5083344;28;20257;-81
2022/05/31 06:47:15;;;;;;;10.03;9.03;;;;;;;30.10;39.03;94645.03;5083678;28;20902;-81
2022/05/31 06:49:41;;;;;;;11.03;8.60;;;;;;;30.88;37.87;94653.00;5086575;28;20428;-80
2022/05/31 06:57:43;;;;;;;10.13;8.10;;;;;;;29.89;39.49;94644.88;5085645;28;20439;-81
2022/05/31 07:00:16;;;;;;;10.30;8.53;;;;;;;28.47;42.47;94646.56;5089135;28;20431;-81
2022/05/31 07:02:41;;;;;;;9.47;8.30;;;;;;;29.44;40.74;94650.50;5078904;28;20439;-80
2022/05/31 07:05:10;;;;;;;10.20;8.97;;;;;;;28.76;41.86;94645.31;5085659;28;20435;-81
2022/05/31 07:07:36;;;;;;;12.80;8.70;;;;;;;29.90;39.72;94643.75;5088657;28;20174;-81
2022/05/31 07:10:03;;;;;;;10.73;9.77;;;;;;;30.54;37.97;94646.63;5087053;28;20593;-81
2022/05/31 07:12:29;;;;;;;12.27;9.13;;;;;;;30.74;37.83;94647.03;5087600;28;20170;-80
2022/05/31 07:14:55;;;;;;;11.03;8.70;;;;;;;30.29;38.64;94640.09;5088464;28;20443;-82
2022/05/31 07:17:21;;;;;;;11.60;8.17;;;;;;;31.30;36.79;94639.69;5093678;28;20466;-82
2022/05/31 07:19:46;;;;;;;13.17;8.83;;;;;;;31.07;37.52;94636.44;5107187;28;20254;-83
2022/05/31 07:22:11;;;;;;;12.10;8.73;;;;;;;32.00;36.00;94641.16;5089369;28;20185;-81
2022/05/31 07:24:37;;;;;;;15.17;9.23;;;;;;;32.59;35.00;94645.63;5087258;28;20185;-81
2022/05/31 07:27:03;;;;;;;10.77;8.87;;;;;;;30.40;38.34;94639.81;5086731;28;20189;-82
2022/05/31 07:29:28;;;;;;;16.73;8.53;;;;;;;31.42;37.00;94638.19;5085415;28;20198;-82
2022/05/31 07:31:54;;;;;;;11.97;9.57;;;;;;;31.10;37.20;94641.19;5090471;28;20222;-82
2022/05/31 07:34:20;;;;;;;11.03;9.17;;;;;;;31.46;37.11;94644.53;5084398;28;20206;-81
2022/05/31 07:36:46;;;;;;;9.57;8.33;;;;;;;32.06;35.63;94643.38;5086894;28;20201;-81
2022/05/31 07:39:13;;;;;;;12.50;7.90;;;;;;;30.87;37.53;94643.34;5102458;28;20461;-81
2022/05/31 07:41:39;;;;;;;12.00;7.53;;;;;;;31.26;36.48;94637.94;5081051;28;20206;-81
2022/05/31 07:44:06;;;;;;;11.50;7.60;;;;;;;31.21;37.21;94638.94;5085090;28;20417;-81
2022/05/31 07:46:31;;;;;;;14.80;8.40;;;;;;;31.87;35.71;94637.59;5090960;28;20423;-81
2022/05/31 07:48:57;;;;;;;10.50;9.10;;;;;;;32.31;35.12;94629.94;5087468;28;20457;-82
2022/05/31 07:51:24;;;;;;;24.60;9.10;;;;;;;32.43;34.65;94631.88;5086342;28;20187;-81
2022/05/31 07:54:08;;;;;;;10.10;7.57;;;;;;;32.49;34.84;94625.91;5085322;28;20512;-81
2022/05/31 07:56:33;;;;;;;15.57;7.77;;;;;;;32.35;35.08;94627.34;5084256;28;20441;-81
2022/05/31 07:58:59;;;;;;;12.63;7.00;;;;;;;32.96;33.24;94632.94;5083888;28;20453;-82
2022/05/31 08:01:25;;;;;;;10.37;6.53;;;;;;;32.08;34.83;94629.47;5085839;28;20187;-82
2022/05/31 08:03:54;;;;;;;15.50;7.93;;;;;;;31.05;36.86;94632.47;5085390;28;20200;-81
2022/05/31 08:06:22;;;;;;;13.90;7.80;;;;;;;31.13;36.22;94626.22;5084074;28;20502;-81
2022/05/31 08:08:48;;;;;;;7.73;6.93;;;;;;;31.41;35.68;94625.78;5087403;28;20526;-81
2022/05/31 08:11:20;;;;;;;9.43;7.13;;;;;;;30.44;37.93;94619.94;5105782;28;20442;-81
2022/05/31 08:13:46;;;;;;;9.40;7.50;;;;;;;31.42;36.73;94628.16;5103018;28;20514;-81
2022/05/31 08:16:15;;;;;;;8.43;6.57;;;;;;;31.70;35.28;94619.56;5083246;28;20526;-82
2022/05/31 08:18:42;;;;;;;7.47;6.67;;;;;;;31.99;34.70;94626.03;5087637;28;20194;-81
2022/05/31 08:21:12;;;;;;;7.13;6.43;;;;;;;33.08;33.17;94629.41;5083024;28;20458;-81
2022/05/31 08:23:38;;;;;;;8.30;6.60;;;;;;;32.53;33.23;94622.53;5084039;28;20422;-81
2022/05/31 08:26:04;;;;;;;6.43;5.83;;;;;;;32.01;34.71;94618.38;5084624;28;20422;-80
2022/05/31 08:28:31;;;;;;;6.30;5.67;;;;;;;32.65;33.20;94623.41;5084164;28;20518;-80
2022/05/31 08:30:59;;;;;;;19.30;9.30;;;;;;;31.83;34.96;94615.00;5100185;28;20428;-81
2022/05/31 08:33:25;;;;;;;10.37;6.10;;;;;;;32.98;32.24;94622.53;5080776;28;20565;-81
2022/05/31 08:35:51;;;;;;;21.53;10.00;;;;;;;32.83;32.59;94605.00;5088796;28;20429;-82
2022/05/31 08:38:18;;;;;;;13.80;6.47;;;;;;;33.07;32.68;94600.72;5085138;28;20180;-82
2022/05/31 08:40:58;;;;;;;12.00;7.00;;;;;;;34.31;30.84;94606.75;5083720;28;20435;-82
2022/05/31 08:43:46;;;;;;;7.60;5.40;;;;;;;31.58;34.41;94587.81;5083735;28;20439;-81
2022/05/31 08:46:27;;;;;;;9.27;5.73;;;;;;;32.61;32.59;94600.81;5081779;28;20427;-81
2022/05/31 08:49:14;;;;;;;10.03;5.60;;;;;;;33.10;31.75;94594.63;5084799;28;20416;-81
2022/05/31 08:52:04;;;;;;;5.93;5.23;;;;;;;32.42;32.96;94598.59;5085390;28;20457;-81
2022/05/31 08:57:34;;;;;;;5.20;4.63;;;;;;;33.93;29.72;94592.50;5085629;28;20442;-81
2022/05/31 09:00:04;;;;;;;4.33;3.93;;;;;;;33.41;29.26;94596.00;5082282;28;20501;-81
2022/05/31 09:02:40;;;;;;;8.53;4.57;;;;;;;33.58;29.51;94603.88;5081562;28;20440;-82
2022/05/31 09:05:14;;;;;;;6.63;4.77;;;;;;;32.52;31.56;94594.66;5085108;28;20521;-81
2022/05/31 09:07:50;;;;;;;8.70;5.50;;;;;;;32.93;31.66;94592.91;5083370;28;20461;-81
2022/05/31 09:10:29;;;;;;;8.83;4.90;;;;;;;33.72;29.55;94581.03;5084030;28;20430;-82
2022/05/31 09:13:22;;;;;;;8.07;5.10;;;;;;;34.57;28.87;94592.69;5086038;28;21076;-81
2022/05/31 09:15:59;;;;;;;6.63;4.90;;;;;;;33.54;30.56;94589.41;5089075;28;20443;-81
2022/05/31 09:18:47;;;;;;;8.27;4.40;;;;;;;32.71;31.91;94594.16;5085832;28;20429;-81
2022/05/31 09:21:22;;;;;;;5.50;4.53;;;;;;;33.45;30.48;94596.91;5081590;28;20538;-81
2022/05/31 09:23:48;;;;;;;10.43;5.97;;;;;;;34.20;29.52;94587.44;5077695;28;20427;-82
2022/05/31 09:26:22;;;;;;;6.63;4.80;;;;;;;33.63;30.64;94597.41;5084319;28;20506;-81
2022/05/31 09:29:02;;;;;;;8.00;5.07;;;;;;;35.33;28.06;94585.25;5080286;28;20188;-81
2022/05/31 09:31:49;;;;;;;7.47;4.80;;;;;;;35.71;26.94;94585.72;5084614;28;20474;-80
2022/05/31 09:34:22;;;;;;;9.27;5.83;;;;;;;35.31;27.54;94581.31;5084345;28;20523;-81
2022/05/31 09:37:03;;;;;;;6.00;4.83;;;;;;;34.75;27.74;94583.06;5101704;28;20427;-81
2022/05/31 09:40:07;;;;;;;5.10;4.70;;;;;;;35.29;27.54;94578.16;5087098;28;20411;-81
2022/05/31 09:42:42;;;;;;;5.20;4.70;;;;;;;34.23;28.79;94573.94;5081989;28;20926;-80
2022/05/31 09:45:13;;;;;;;5.40;4.80;;;;;;;35.36;27.61;94589.19;5085512;28;20419;-81
2022/05/31 09:47:39;;;;;;;8.87;5.10;;;;;;;36.25;26.79;94581.34;5084478;28;20432;-81
2022/05/31 09:50:05;;;;;;;9.30;4.37;;;;;;;36.39;26.13;94581.63;5082114;28;20499;-81
2022/05/31 09:52:52;;;;;;;4.20;3.83;;;;;;;35.83;25.67;94585.56;5082578;28;20193;-81
2022/05/31 09:58:24;;;;;;;6.73;5.20;;;;;;;34.95;27.35;94572.28;5083503;28;20442;-80
2022/05/31 10:01:27;;;;;;;4.17;3.77;;;;;;;35.52;26.89;94579.06;5082767;28;20438;-80
2022/05/31 10:04:00;;;;;;;9.53;5.43;;;;;;;34.71;28.34;94576.75;5079720;28;20942;-80
2022/05/31 10:06:30;;;;;;;9.93;5.23;;;;;;;35.45;27.38;94576.16;5072838;28;20588;-80
2022/05/31 10:08:56;;;;;;;8.93;4.97;;;;;;;35.52;27.16;94576.31;5085488;28;20900;-81
2022/05/31 10:11:25;;;;;;;7.00;5.27;;;;;;;36.60;25.34;94566.78;5085802;28;20459;-81
2022/05/31 10:14:00;;;;;;;10.20;5.60;;;;;;;35.87;26.62;94572.00;5084648;28;20463;-80
2022/05/31 10:16:30;;;;;;;20.93;8.07;;;;;;;35.03;27.61;94565.88;5087263;28;20740;-80
2022/05/31 10:19:02;;;;;;;6.03;5.30;;;;;;;34.98;27.85;94552.53;5103220;28;20438;-80
2022/05/31 10:21:42;;;;;;;6.63;5.67;;;;;;;34.97;27.70;94556.41;5086185;28;20826;-80
2022/05/31 10:24:16;;;;;;;6.50;3.93;;;;;;;36.02;26.39;94562.19;5092000;28;20919;-80
2022/05/31 10:26:43;;;;;;;6.43;4.07;;;;;;;35.79;27.10;94557.47;5089892;28;20500;-80
2022/05/31 10:29:12;;;;;;;9.07;4.80;;;;;;;36.07;25.83;94559.19;5090489;28;20444;-80
2022/05/31 10:31:41;;;;;;;5.37;4.87;;;;;;;36.21;26.51;94556.75;5087887;28;21010;-81
2022/05/31 10:34:32;;;;;;;8.87;4.27;;;;;;;34.59;28.58;94557.78;5085709;28;20459;-81
2022/05/31 10:36:59;;;;;;;7.57;4.30;;;;;;;36.78;25.42;94550.75;5082044;28;20547;-81
2022/05/31 10:39:28;;;;;;;5.90;4.00;;;;;;;36.68;25.81;94547.47;5087127;28;20450;-80
2022/05/31 10:41:55;;;;;;;10.40;5.50;;;;;;;35.73;27.29;94542.56;5089953;28;21077;-80
2022/05/31 10:44:33;;;;;;;9.67;4.33;;;;;;;35.82;26.51;94543.13;5089500;28;20436;-81
2022/05/31 10:47:12;;;;;;;7.03;4.73;;;;;;;36.03;26.90;94533.78;5087669;28;20435;-81
2022/05/31 10:49:40;;;;;;;12.90;5.40;;;;;;;36.26;26.36;94523.75;5089086;28;20427;-81
2022/05/31 10:52:14;;;;;;;5.30;3.83;;;;;;;35.58;26.97;94527.81;5099915;28;20437;-81
2022/05/31 10:54:42;;;;;;;10.40;4.23;;;;;;;37.29;24.72;94532.06;5097904;28;20463;-81
2022/05/31 10:57:59;;;;;;;6.50;3.80;;;;;;;36.72;25.52;94526.50;5084153;28;20437;-80
2022/05/31 11:00:28;;;;;;;16.67;5.30;;;;;;;35.23;27.41;94525.13;5080077;28;20439;-80
2022/05/31 11:03:08;;;;;;;12.10;4.40;;;;;;;35.69;26.32;94523.41;5090003;28;20450;-81
2022/05/31 11:06:13;;;;;;;6.93;4.00;;;;;;;36.74;25.69;94524.19;5082409;28;20429;-81
2022/05/31 11:12:23;;;;;;;7.30;3.93;;;;;;;37.69;23.95;94505.28;5083719;28;20438;-81
2022/05/31 11:15:07;;;;;;;4.40;4.00;;;;;;;36.06;26.05;94500.38;5084509;28;20505;-81
2022/05/31 11:17:52;;;;;;;4.50;4.07;;;;;;;35.18;26.75;94499.78;5091641;28;20432;-80
2022/05/31 11:20:42;;;;;;;5.40;3.40;;;;;;;35.90;25.99;94484.91;5083997;28;20493;-81
2022/05/31 11:23:09;;;;;;;4.40;3.73;;;;;;;37.14;24.85;94488.56;5088197;28;20424;-81
2022/05/31 11:26:27;;;;;;;4.23;3.50;;;;;;;36.09;25.54;94483.31;5095415;28;20992;-81
2022/05/31 11:29:10;;;;;;;4.17;3.10;;;;;;;36.17;25.22;94485.03;5042317;28;20436;-81
2022/05/31 11:31:51;;;;;;;5.97;3.70;;;;;;;37.00;23.66;94486.41;5098657;28;20460;-81
2022/05/31 11:35:04;;;;;;;3.37;3.10;;;;;;;37.79;22.78;94485.53;5077475;28;20459;-82
2022/05/31 11:37:44;;;;;;;5.10;3.50;;;;;;;38.03;22.59;94481.47;5085148;28;20439;-81
2022/05/31 11:41:03;;;;;;;11.20;3.00;;;;;;;36.88;23.81;94482.72;5085759;28;21000;-80
2022/05/31 11:44:12;;;;;;;5.40;3.20;;;;;;;37.33;23.00;94472.03;5039465;28;20442;-81
2022/05/31 11:46:47;;;;;;;3.60;3.30;;;;;;;37.60;22.98;94471.97;5063800;28;20430;-81
2022/05/31 11:49:22;;;;;;;5.90;3.20;;;;;;;35.69;25.32;94465.44;5084240;28;20487;-80
2022/05/31 11:51:56;;;;;;;5.23;2.97;;;;;;;35.94;23.98;94472.13;5076956;28;20432;-81
2022/05/31 11:54:41;;;;;;;3.37;3.10;;;;;;;36.19;23.75;94473.78;5081571;28;20474;-81
2022/05/31 11:57:38;;;;;;;3.20;2.90;;;;;;;35.84;24.68;94466.47;5093356;28;20432;-81
2022/05/31 12:00:08;;;;;;;7.07;2.80;;;;;;;36.58;23.36;94470.91;5090038;28;21013;-80
2022/05/31 12:03:03;;;;;;;6.50;3.27;;;;;;;37.14;22.92;94469.44;5092448;28;20546;-80
2022/05/31 12:05:40;;;;;;;5.13;3.10;;;;;;;36.82;23.26;94472.47;5086269;28;20415;-81
2022/05/31 12:08:58;;;;;;;4.70;3.40;;;;;;;36.94;23.97;94466.81;5085937;28;20427;-81
2022/05/31 12:11:35;;;;;;;11.00;3.70;;;;;;;37.95;22.52;94463.44;5072441;28;20499;-81